sensor_id;sensor_type;location;lat;lon;timestamp;temperature;humidity
1359;DHT22;673;48.098;14.422;2023-04-01T00:01:42;8.80;99.90
1359;DHT22;673;48.098;14.422;2023-04-01T00:04:09;8.80;99.90
1359;DHT22;673;48.098;14.422;2023-04-01T00:06:36;8.80;99.90
1359;DHT22;673;48.098;14.422;2023-04-01T00:09:03;8.80;99.90
1359;DHT22;673;48.098;14.422;2023-04-01T00:11:30;8.70;99.90
1359;DHT22;673;48.098;14.422;2023-04-01T00:13:57;8.70;99.90
1359;DHT22;673;48.098;14.422;2023-04-01T00:16:26;8.60;99.90
1359;DHT22;673;48.098;14.422;2023-04-01T00:18:53;8.60;99.90
1359;DHT22;673;48.098;14.422;2023-04-01T00:21:20;8.60;99.90
1359;DHT22;673;48.098;14.422;2023-04-01T00:23:48;8.70;99.90
1359;DHT22;673;48.098;14.422;2023-04-01T00:26:15;8.60;99.90
1359;DHT22;673;48.098;14.422;2023-04-01T00:28:45;8.60;99.90
1359;DHT22;673;48.098;14.422;2023-04-01T00:31:12;8.60;99.90
1359;DHT22;673;48.098;14.422;2023-04-01T00:33:41;8.60;99.90
1359;DHT22;673;48.098;14.422;2023-04-01T00:36:09;8.70;99.90
1359;DHT22;673;48.098;14.422;2023-04-01T00:38:37;8.70;99.90
1359;DHT22;673;48.098;14.422;2023-04-01T00:41:05;8.80;99.90
1359;DHT22;673;48.098;14.422;2023-04-01T00:43:32;8.80;99.90
1359;DHT22;673;48.098;14.422;2023-04-01T00:46:00;8.70;99.90
1359;DHT22;673;48.098;14.422;2023-04-01T00:48:29;8.70;99.90
1359;DHT22;673;48.098;14.422;2023-04-01T00:51:02;8.60;99.90
1359;DHT22;673;48.098;14.422;2023-04-01T00:53:31;8.60;99.90
1359;DHT22;673;48.098;14.422;2023-04-01T00:56:03;8.60;99.90
1359;DHT22;673;48.098;14.422;2023-04-01T00:58:34;8.80;99.90
1359;DHT22;673;48.098;14.422;2023-04-01T01:01:02;8.80;99.90
1359;DHT22;673;48.098;14.422;2023-04-01T01:03:30;8.80;99.90
1359;DHT22;673;48.098;14.422;2023-04-01T01:06:09;8.80;99.90
1359;DHT22;673;48.098;14.422;2023-04-01T01:08:52;8.70;99.90
1359;DHT22;673;48.098;14.422;2023-04-01T01:11:31;8.60;99.90
1359;DHT22;673;48.098;14.422;2023-04-01T01:14:07;8.70;99.90
1359;DHT22;673;48.098;14.422;2023-04-01T01:16:42;8.70;99.90
1359;DHT22;673;48.098;14.422;2023-04-01T01:19:21;8.60;99.90
1359;DHT22;673;48.098;14.422;2023-04-01T01:22:12;8.60;99.90
1359;DHT22;673;48.098;14.422;2023-04-01T01:25:16;8.60;99.90
1359;DHT22;673;48.098;14.422;2023-04-01T01:27:47;8.60;99.90
1359;DHT22;673;48.098;14.422;2023-04-01T01:30:31;8.60;99.90
1359;DHT22;673;48.098;14.422;2023-04-01T01:35:59;8.60;99.90
1359;DHT22;673;48.098;14.422;2023-04-01T01:38:31;8.60;99.90
1359;DHT22;673;48.098;14.422;2023-04-01T01:40:59;8.60;99.90
1359;DHT22;673;48.098;14.422;2023-04-01T01:43:30;8.50;99.90
1359;DHT22;673;48.098;14.422;2023-04-01T01:46:01;8.50;99.90
1359;DHT22;673;48.098;14.422;2023-04-01T01:48:31;8.40;99.90
1359;DHT22;673;48.098;14.422;2023-04-01T01:51:00;8.40;99.90
1359;DHT22;673;48.098;14.422;2023-04-01T01:53:28;8.50;99.90
1359;DHT22;673;48.098;14.422;2023-04-01T01:55:55;8.40;99.90
1359;DHT22;673;48.098;14.422;2023-04-01T01:58:24;8.40;99.90
1359;DHT22;673;48.098;14.422;2023-04-01T02:00:55;8.40;99.90
1359;DHT22;673;48.098;14.422;2023-04-01T02:03:24;8.40;99.90
1359;DHT22;673;48.098;14.422;2023-04-01T02:05:56;8.30;99.90
1359;DHT22;673;48.098;14.422;2023-04-01T02:08:27;8.30;99.90
1359;DHT22;673;48.098;14.422;2023-04-01T02:10:57;8.30;99.90
1359;DHT22;673;48.098;14.422;2023-04-01T02:13:29;8.40;99.90
1359;DHT22;673;48.098;14.422;2023-04-01T02:16:01;8.40;99.90
1359;DHT22;673;48.098;14.422;2023-04-01T02:18:30;8.40;99.90
1359;DHT22;673;48.098;14.422;2023-04-01T02:21:00;8.40;99.90
1359;DHT22;673;48.098;14.422;2023-04-01T02:23:32;8.40;99.90
1359;DHT22;673;48.098;14.422;2023-04-01T02:26:00;8.40;99.90
1359;DHT22;673;48.098;14.422;2023-04-01T02:28:29;8.40;99.90
1359;DHT22;673;48.098;14.422;2023-04-01T02:30:58;8.40;99.90
1359;DHT22;673;48.098;14.422;2023-04-01T02:33:28;8.30;99.90
1359;DHT22;673;48.098;14.422;2023-04-01T02:35:56;8.30;99.90
1359;DHT22;673;48.098;14.422;2023-04-01T02:38:24;8.30;99.90
1359;DHT22;673;48.098;14.422;2023-04-01T02:40:57;8.30;99.90
1359;DHT22;673;48.098;14.422;2023-04-01T02:43:25;8.30;99.90
1359;DHT22;673;48.098;14.422;2023-04-01T02:45:52;8.30;99.90
1359;DHT22;673;48.098;14.422;2023-04-01T02:48:19;8.40;99.90
1359;DHT22;673;48.098;14.422;2023-04-01T02:50:46;8.40;99.90
1359;DHT22;673;48.098;14.422;2023-04-01T02:53:13;8.40;99.90
1359;DHT22;673;48.098;14.422;2023-04-01T02:55:41;8.40;99.90
1359;DHT22;673;48.098;14.422;2023-04-01T02:58:09;8.30;99.90
1359;DHT22;673;48.098;14.422;2023-04-01T03:00:36;8.30;99.90
1359;DHT22;673;48.098;14.422;2023-04-01T03:03:03;8.30;99.90
1359;DHT22;673;48.098;14.422;2023-04-01T03:05:30;8.20;99.90
1359;DHT22;673;48.098;14.422;2023-04-01T03:07:57;8.20;99.90
1359;DHT22;673;48.098;14.422;2023-04-01T03:10:24;8.10;99.90
1359;DHT22;673;48.098;14.422;2023-04-01T03:12:51;8.10;99.90
1359;DHT22;673;48.098;14.422;2023-04-01T03:15:19;8.10;99.90
1359;DHT22;673;48.098;14.422;2023-04-01T03:17:46;8.10;99.90
1359;DHT22;673;48.098;14.422;2023-04-01T03:20:13;8.10;99.90
1359;DHT22;673;48.098;14.422;2023-04-01T03:22:40;8.10;99.90
1359;DHT22;673;48.098;14.422;2023-04-01T03:25:08;8.00;99.90
1359;DHT22;673;48.098;14.422;2023-04-01T03:27:37;8.00;99.90
1359;DHT22;673;48.098;14.422;2023-04-01T03:30:05;8.10;99.90
1359;DHT22;673;48.098;14.422;2023-04-01T03:32:34;8.10;99.90
1359;DHT22;673;48.098;14.422;2023-04-01T03:35:01;8.10;99.90
1359;DHT22;673;48.098;14.422;2023-04-01T03:37:28;8.10;99.90
1359;DHT22;673;48.098;14.422;2023-04-01T03:39:55;8.10;99.90
1359;DHT22;673;48.098;14.422;2023-04-01T03:42:22;8.20;99.90
1359;DHT22;673;48.098;14.422;2023-04-01T03:44:49;8.10;99.90
1359;DHT22;673;48.098;14.422;2023-04-01T03:47:16;8.10;99.90
1359;DHT22;673;48.098;14.422;2023-04-01T03:49:44;8.10;99.90
1359;DHT22;673;48.098;14.422;2023-04-01T03:52:11;7.90;99.90
1359;DHT22;673;48.098;14.422;2023-04-01T03:54:39;7.70;99.90
1359;DHT22;673;48.098;14.422;2023-04-01T03:57:06;7.60;99.90
1359;DHT22;673;48.098;14.422;2023-04-01T03:59:33;7.50;99.90
1359;DHT22;673;48.098;14.422;2023-04-01T04:02:00;7.40;99.90
1359;DHT22;673;48.098;14.422;2023-04-01T04:04:27;7.30;99.90
1359;DHT22;673;48.098;14.422;2023-04-01T04:06:57;7.30;99.90
1359;DHT22;673;48.098;14.422;2023-04-01T04:09:23;7.30;99.90
1359;DHT22;673;48.098;14.422;2023-04-01T04:11:51;7.30;99.90
1359;DHT22;673;48.098;14.422;2023-04-01T04:14:18;7.30;99.90
1359;DHT22;673;48.098;14.422;2023-04-01T04:16:45;7.30;99.90
1359;DHT22;673;48.098;14.422;2023-04-01T04:19:12;7.30;99.90
1359;DHT22;673;48.098;14.422;2023-04-01T04:21:39;7.30;99.90
1359;DHT22;673;48.098;14.422;2023-04-01T04:24:08;7.30;99.90
1359;DHT22;673;48.098;14.422;2023-04-01T04:26:35;7.20;99.90
1359;DHT22;673;48.098;14.422;2023-04-01T04:29:03;7.20;99.90
1359;DHT22;673;48.098;14.422;2023-04-01T04:31:30;7.20;99.90
1359;DHT22;673;48.098;14.422;2023-04-01T04:33:58;7.30;99.90
1359;DHT22;673;48.098;14.422;2023-04-01T04:36:26;7.30;99.90
1359;DHT22;673;48.098;14.422;2023-04-01T04:38:53;7.30;99.90
1359;DHT22;673;48.098;14.422;2023-04-01T04:41:21;7.30;99.90
1359;DHT22;673;48.098;14.422;2023-04-01T04:43:50;7.30;99.90
1359;DHT22;673;48.098;14.422;2023-04-01T04:46:17;7.40;99.90
1359;DHT22;673;48.098;14.422;2023-04-01T04:48:44;7.30;99.90
1359;DHT22;673;48.098;14.422;2023-04-01T04:51:13;7.40;99.90
1359;DHT22;673;48.098;14.422;2023-04-01T04:53:41;7.40;99.90
1359;DHT22;673;48.098;14.422;2023-04-01T04:56:08;7.50;99.90
1359;DHT22;673;48.098;14.422;2023-04-01T04:58:37;7.50;99.90
1359;DHT22;673;48.098;14.422;2023-04-01T05:01:09;7.50;99.90
1359;DHT22;673;48.098;14.422;2023-04-01T05:03:36;7.60;99.90
1359;DHT22;673;48.098;14.422;2023-04-01T05:06:04;7.50;99.90
1359;DHT22;673;48.098;14.422;2023-04-01T05:08:31;7.60;99.90
1359;DHT22;673;48.098;14.422;2023-04-01T05:10:59;7.60;99.90
1359;DHT22;673;48.098;14.422;2023-04-01T05:13:26;7.60;99.90
1359;DHT22;673;48.098;14.422;2023-04-01T05:15:55;7.60;99.90
1359;DHT22;673;48.098;14.422;2023-04-01T05:18:22;7.60;99.90
1359;DHT22;673;48.098;14.422;2023-04-01T05:20:50;7.60;99.90
1359;DHT22;673;48.098;14.422;2023-04-01T05:23:18;7.70;99.90
1359;DHT22;673;48.098;14.422;2023-04-01T05:25:46;7.70;99.90
1359;DHT22;673;48.098;14.422;2023-04-01T05:28:13;7.70;99.90
1359;DHT22;673;48.098;14.422;2023-04-01T05:30:40;7.80;99.90
1359;DHT22;673;48.098;14.422;2023-04-01T05:33:10;7.80;99.90
1359;DHT22;673;48.098;14.422;2023-04-01T05:35:37;7.90;99.90
1359;DHT22;673;48.098;14.422;2023-04-01T05:38:05;7.90;99.90
1359;DHT22;673;48.098;14.422;2023-04-01T05:40:32;7.90;99.90
1359;DHT22;673;48.098;14.422;2023-04-01T05:42:59;8.00;99.90
1359;DHT22;673;48.098;14.422;2023-04-01T05:45:27;8.00;99.90
1359;DHT22;673;48.098;14.422;2023-04-01T05:47:54;8.10;99.90
1359;DHT22;673;48.098;14.422;2023-04-01T05:50:23;8.20;99.90
1359;DHT22;673;48.098;14.422;2023-04-01T05:52:50;8.20;99.90
1359;DHT22;673;48.098;14.422;2023-04-01T05:55:17;8.30;99.90
1359;DHT22;673;48.098;14.422;2023-04-01T05:57:45;8.20;99.90
1359;DHT22;673;48.098;14.422;2023-04-01T06:00:14;8.20;99.90
1359;DHT22;673;48.098;14.422;2023-04-01T06:02:42;8.30;99.90
1359;DHT22;673;48.098;14.422;2023-04-01T06:05:15;8.30;99.90
1359;DHT22;673;48.098;14.422;2023-04-01T06:07:45;8.30;99.90
1359;DHT22;673;48.098;14.422;2023-04-01T06:10:17;8.40;99.90
1359;DHT22;673;48.098;14.422;2023-04-01T06:12:53;8.50;99.90
1359;DHT22;673;48.098;14.422;2023-04-01T06:15:29;8.60;99.90
1359;DHT22;673;48.098;14.422;2023-04-01T06:18:19;8.60;99.90
1359;DHT22;673;48.098;14.422;2023-04-01T06:20:56;8.80;99.90
1359;DHT22;673;48.098;14.422;2023-04-01T06:23:45;8.80;99.90
1359;DHT22;673;48.098;14.422;2023-04-01T06:26:20;9.00;99.90
1359;DHT22;673;48.098;14.422;2023-04-01T06:29:08;9.20;99.90
1359;DHT22;673;48.098;14.422;2023-04-01T06:32:12;9.20;99.90
1359;DHT22;673;48.098;14.422;2023-04-01T06:34:58;9.30;99.90
1359;DHT22;673;48.098;14.422;2023-04-01T06:43:40;9.20;99.90
1359;DHT22;673;48.098;14.422;2023-04-01T06:46:14;9.30;99.90
1359;DHT22;673;48.098;14.422;2023-04-01T06:48:57;9.20;99.90
1359;DHT22;673;48.098;14.422;2023-04-01T06:51:37;9.30;99.90
1359;DHT22;673;48.098;14.422;2023-04-01T06:54:10;9.30;99.90
1359;DHT22;673;48.098;14.422;2023-04-01T06:56:42;9.40;99.90
1359;DHT22;673;48.098;14.422;2023-04-01T06:59:15;9.50;99.90
1359;DHT22;673;48.098;14.422;2023-04-01T07:01:47;9.60;99.90
1359;DHT22;673;48.098;14.422;2023-04-01T07:04:20;9.60;99.90
1359;DHT22;673;48.098;14.422;2023-04-01T07:06:50;9.50;99.90
1359;DHT22;673;48.098;14.422;2023-04-01T07:09:20;9.60;99.90
1359;DHT22;673;48.098;14.422;2023-04-01T07:11:50;9.80;99.90
1359;DHT22;673;48.098;14.422;2023-04-01T07:14:24;9.90;99.90
1359;DHT22;673;48.098;14.422;2023-04-01T07:16:56;10.10;99.90
1359;DHT22;673;48.098;14.422;2023-04-01T07:19:29;10.30;99.90
1359;DHT22;673;48.098;14.422;2023-04-01T07:22:00;10.30;99.90
1359;DHT22;673;48.098;14.422;2023-04-01T07:24:32;10.50;99.90
1359;DHT22;673;48.098;14.422;2023-04-01T07:27:01;10.60;99.90
1359;DHT22;673;48.098;14.422;2023-04-01T07:29:28;10.40;99.90
1359;DHT22;673;48.098;14.422;2023-04-01T07:32:21;10.60;99.90
1359;DHT22;673;48.098;14.422;2023-04-01T07:34:57;10.60;99.90
1359;DHT22;673;48.098;14.422;2023-04-01T07:37:31;10.50;99.90
1359;DHT22;673;48.098;14.422;2023-04-01T07:40:14;10.50;99.90
1359;DHT22;673;48.098;14.422;2023-04-01T07:42:59;10.40;99.90
1359;DHT22;673;48.098;14.422;2023-04-01T07:45:31;10.70;99.90
1359;DHT22;673;48.098;14.422;2023-04-01T07:48:14;11.00;99.90
1359;DHT22;673;48.098;14.422;2023-04-01T07:50:51;11.10;99.90
1359;DHT22;673;48.098;14.422;2023-04-01T07:53:25;10.80;99.90
1359;DHT22;673;48.098;14.422;2023-04-01T07:56:02;10.90;99.90
1359;DHT22;673;48.098;14.422;2023-04-01T07:58:38;11.10;99.90
1359;DHT22;673;48.098;14.422;2023-04-01T08:01:13;11.10;99.90
1359;DHT22;673;48.098;14.422;2023-04-01T08:03:55;11.20;99.90
1359;DHT22;673;48.098;14.422;2023-04-01T08:06:28;11.20;99.90
1359;DHT22;673;48.098;14.422;2023-04-01T08:09:04;11.30;99.90
1359;DHT22;673;48.098;14.422;2023-04-01T08:11:45;11.20;99.90
1359;DHT22;673;48.098;14.422;2023-04-01T08:14:21;11.20;99.90
1359;DHT22;673;48.098;14.422;2023-04-01T08:16:56;11.20;99.90
1359;DHT22;673;48.098;14.422;2023-04-01T08:19:31;11.10;99.90
1359;DHT22;673;48.098;14.422;2023-04-01T08:22:07;11.10;99.90
1359;DHT22;673;48.098;14.422;2023-04-01T08:24:40;11.00;99.90
1359;DHT22;673;48.098;14.422;2023-04-01T08:27:12;11.10;99.90
1359;DHT22;673;48.098;14.422;2023-04-01T08:29:48;11.20;99.90
1359;DHT22;673;48.098;14.422;2023-04-01T08:32:20;11.40;99.90
1359;DHT22;673;48.098;14.422;2023-04-01T08:34:55;11.50;99.90
1359;DHT22;673;48.098;14.422;2023-04-01T08:37:30;11.50;99.90
1359;DHT22;673;48.098;14.422;2023-04-01T08:40:04;11.30;99.90
1359;DHT22;673;48.098;14.422;2023-04-01T08:42:50;11.10;99.90
1359;DHT22;673;48.098;14.422;2023-04-01T08:45:34;11.10;99.90
1359;DHT22;673;48.098;14.422;2023-04-01T08:48:32;11.10;99.90
1359;DHT22;673;48.098;14.422;2023-04-01T08:51:21;11.30;99.90
1359;DHT22;673;48.098;14.422;2023-04-01T08:56:54;11.20;99.90
1359;DHT22;673;48.098;14.422;2023-04-01T08:59:35;11.60;99.90
1359;DHT22;673;48.098;14.422;2023-04-01T09:02:25;11.70;99.90
1359;DHT22;673;48.098;14.422;2023-04-01T09:05:22;11.80;99.90
1359;DHT22;673;48.098;14.422;2023-04-01T09:08:01;11.80;99.90
1359;DHT22;673;48.098;14.422;2023-04-01T09:10:48;11.70;99.90
1359;DHT22;673;48.098;14.422;2023-04-01T09:13:48;11.70;99.90
1359;DHT22;673;48.098;14.422;2023-04-01T09:16:34;11.70;99.90
1359;DHT22;673;48.098;14.422;2023-04-01T09:19:17;11.70;99.90
1359;DHT22;673;48.098;14.422;2023-04-01T09:22:05;11.80;99.90
1359;DHT22;673;48.098;14.422;2023-04-01T09:25:15;11.80;99.90
1359;DHT22;673;48.098;14.422;2023-04-01T09:27:56;11.80;99.90
1359;DHT22;673;48.098;14.422;2023-04-01T09:34:12;11.80;99.90
1359;DHT22;673;48.098;14.422;2023-04-01T09:36:45;11.80;99.90
1359;DHT22;673;48.098;14.422;2023-04-01T09:39:30;11.70;99.90
1359;DHT22;673;48.098;14.422;2023-04-01T09:42:08;11.60;99.90
1359;DHT22;673;48.098;14.422;2023-04-01T09:44:46;11.70;99.90
1359;DHT22;673;48.098;14.422;2023-04-01T09:47:25;11.80;99.90
1359;DHT22;673;48.098;14.422;2023-04-01T09:50:18;12.00;99.90
1359;DHT22;673;48.098;14.422;2023-04-01T09:52:57;12.30;99.90
1359;DHT22;673;48.098;14.422;2023-04-01T10:02:11;13.00;99.90
1359;DHT22;673;48.098;14.422;2023-04-01T10:08:25;12.70;99.90
1359;DHT22;673;48.098;14.422;2023-04-01T10:11:12;12.20;99.90
1359;DHT22;673;48.098;14.422;2023-04-01T10:14:04;12.00;99.90
1359;DHT22;673;48.098;14.422;2023-04-01T10:20:01;11.60;99.90
1359;DHT22;673;48.098;14.422;2023-04-01T10:23:01;11.80;99.90
1359;DHT22;673;48.098;14.422;2023-04-01T10:28:59;11.70;99.90
1359;DHT22;673;48.098;14.422;2023-04-01T10:31:45;11.80;99.90
1359;DHT22;673;48.098;14.422;2023-04-01T10:34:52;11.80;99.90
1359;DHT22;673;48.098;14.422;2023-04-01T10:37:49;11.80;99.90
1359;DHT22;673;48.098;14.422;2023-04-01T10:40:45;11.90;99.90
1359;DHT22;673;48.098;14.422;2023-04-01T10:43:46;12.00;99.90
1359;DHT22;673;48.098;14.422;2023-04-01T10:46:43;11.80;99.90
1359;DHT22;673;48.098;14.422;2023-04-01T10:49:45;11.80;99.90
1359;DHT22;673;48.098;14.422;2023-04-01T10:52:48;11.70;99.90
1359;DHT22;673;48.098;14.422;2023-04-01T10:55:36;11.70;99.90
1359;DHT22;673;48.098;14.422;2023-04-01T10:58:35;11.80;99.80
1359;DHT22;673;48.098;14.422;2023-04-01T11:05:14;12.00;99.80
1359;DHT22;673;48.098;14.422;2023-04-01T11:11:22;13.00;98.10
1359;DHT22;673;48.098;14.422;2023-04-01T11:14:21;13.50;97.90
1359;DHT22;673;48.098;14.422;2023-04-01T11:20:42;13.60;96.80
1359;DHT22;673;48.098;14.422;2023-04-01T11:23:54;13.70;94.90
1359;DHT22;673;48.098;14.422;2023-04-01T11:26:33;13.70;94.40
1359;DHT22;673;48.098;14.422;2023-04-01T11:29:22;14.20;95.40
1359;DHT22;673;48.098;14.422;2023-04-01T11:32:00;14.50;95.40
1359;DHT22;673;48.098;14.422;2023-04-01T11:34:39;14.00;93.80
1359;DHT22;673;48.098;14.422;2023-04-01T11:37:22;13.50;94.70
1359;DHT22;673;48.098;14.422;2023-04-01T11:40:03;13.30;94.90
1359;DHT22;673;48.098;14.422;2023-04-01T11:42:37;13.10;94.30
1359;DHT22;673;48.098;14.422;2023-04-01T11:45:15;13.00;96.20
1359;DHT22;673;48.098;14.422;2023-04-01T11:47:55;13.10;95.60
1359;DHT22;673;48.098;14.422;2023-04-01T11:50:33;13.10;95.60
1359;DHT22;673;48.098;14.422;2023-04-01T11:53:26;13.20;93.80
1359;DHT22;673;48.098;14.422;2023-04-01T11:56:18;13.60;94.20
1359;DHT22;673;48.098;14.422;2023-04-01T12:01:52;13.80;96.30
1359;DHT22;673;48.098;14.422;2023-04-01T12:07:34;14.30;93.40
1359;DHT22;673;48.098;14.422;2023-04-01T12:10:17;14.80;93.00
1359;DHT22;673;48.098;14.422;2023-04-01T12:12:52;14.40;91.50
1359;DHT22;673;48.098;14.422;2023-04-01T12:15:29;14.20;91.60
1359;DHT22;673;48.098;14.422;2023-04-01T12:18:05;13.90;90.60
1359;DHT22;673;48.098;14.422;2023-04-01T12:20:46;13.90;91.60
1359;DHT22;673;48.098;14.422;2023-04-01T12:23:28;14.10;91.70
1359;DHT22;673;48.098;14.422;2023-04-01T12:26:27;14.40;90.70
1359;DHT22;673;48.098;14.422;2023-04-01T12:29:09;14.70;93.50
1359;DHT22;673;48.098;14.422;2023-04-01T12:31:47;14.00;90.00
1359;DHT22;673;48.098;14.422;2023-04-01T12:37:30;14.30;90.80
1359;DHT22;673;48.098;14.422;2023-04-01T12:40:30;14.20;90.50
1359;DHT22;673;48.098;14.422;2023-04-01T12:43:17;13.90;91.80
1359;DHT22;673;48.098;14.422;2023-04-01T12:45:52;13.40;91.20
1359;DHT22;673;48.098;14.422;2023-04-01T12:51:46;11.10;99.90
1359;DHT22;673;48.098;14.422;2023-04-01T12:54:30;9.10;99.90
1359;DHT22;673;48.098;14.422;2023-04-01T12:57:15;8.80;99.90
1359;DHT22;673;48.098;14.422;2023-04-01T13:00:09;8.70;99.90
1359;DHT22;673;48.098;14.422;2023-04-01T13:02:49;9.00;99.90
1359;DHT22;673;48.098;14.422;2023-04-01T13:05:52;9.70;99.90
1359;DHT22;673;48.098;14.422;2023-04-01T13:08:36;10.40;99.90
1359;DHT22;673;48.098;14.422;2023-04-01T13:11:14;10.80;99.90
1359;DHT22;673;48.098;14.422;2023-04-01T13:14:17;11.20;99.90
1359;DHT22;673;48.098;14.422;2023-04-01T13:16:53;11.40;99.90
1359;DHT22;673;48.098;14.422;2023-04-01T13:19:27;11.80;99.90
1359;DHT22;673;48.098;14.422;2023-04-01T13:22:00;11.70;99.90
1359;DHT22;673;48.098;14.422;2023-04-01T13:24:41;11.90;99.90
1359;DHT22;673;48.098;14.422;2023-04-01T13:27:16;12.20;99.90
1359;DHT22;673;48.098;14.422;2023-04-01T13:29:52;12.40;99.90
1359;DHT22;673;48.098;14.422;2023-04-01T13:32:30;12.90;99.90
1359;DHT22;673;48.098;14.422;2023-04-01T13:35:16;13.20;99.90
1359;DHT22;673;48.098;14.422;2023-04-01T13:37:56;13.10;99.90
1359;DHT22;673;48.098;14.422;2023-04-01T13:40:32;12.80;99.90
1359;DHT22;673;48.098;14.422;2023-04-01T13:43:07;12.70;99.90
1359;DHT22;673;48.098;14.422;2023-04-01T13:45:46;12.60;99.90
1359;DHT22;673;48.098;14.422;2023-04-01T13:48:33;12.70;99.90
1359;DHT22;673;48.098;14.422;2023-04-01T13:51:30;12.60;99.90
1359;DHT22;673;48.098;14.422;2023-04-01T13:54:09;12.50;99.90
1359;DHT22;673;48.098;14.422;2023-04-01T13:56:48;12.40;99.90
1359;DHT22;673;48.098;14.422;2023-04-01T14:05:36;12.10;99.90
1359;DHT22;673;48.098;14.422;2023-04-01T14:08:13;12.10;99.90
1359;DHT22;673;48.098;14.422;2023-04-01T14:10:45;12.20;99.90
1359;DHT22;673;48.098;14.422;2023-04-01T14:13:20;12.20;99.90
1359;DHT22;673;48.098;14.422;2023-04-01T14:15:58;12.20;99.90
1359;DHT22;673;48.098;14.422;2023-04-01T14:18:53;12.30;99.90
1359;DHT22;673;48.098;14.422;2023-04-01T14:21:35;12.70;99.90
1359;DHT22;673;48.098;14.422;2023-04-01T14:27:39;12.30;99.90
1359;DHT22;673;48.098;14.422;2023-04-01T14:30:20;12.00;99.90
1359;DHT22;673;48.098;14.422;2023-04-01T14:32:56;11.90;99.90
1359;DHT22;673;48.098;14.422;2023-04-01T14:35:37;11.90;99.90
1359;DHT22;673;48.098;14.422;2023-04-01T14:38:33;11.90;99.90
1359;DHT22;673;48.098;14.422;2023-04-01T14:41:10;12.00;99.90
1359;DHT22;673;48.098;14.422;2023-04-01T14:44:18;12.20;99.90
1359;DHT22;673;48.098;14.422;2023-04-01T14:47:18;12.50;99.90
1359;DHT22;673;48.098;14.422;2023-04-01T14:49:52;12.50;99.90
1359;DHT22;673;48.098;14.422;2023-04-01T14:52:24;12.60;99.90
1359;DHT22;673;48.098;14.422;2023-04-01T14:54:56;12.50;99.90
1359;DHT22;673;48.098;14.422;2023-04-01T14:57:27;12.30;99.90
1359;DHT22;673;48.098;14.422;2023-04-01T15:00:00;12.10;99.90
1359;DHT22;673;48.098;14.422;2023-04-01T15:02:37;11.80;99.90
1359;DHT22;673;48.098;14.422;2023-04-01T15:05:15;10.70;99.90
1359;DHT22;673;48.098;14.422;2023-04-01T15:08:00;9.90;99.90
1359;DHT22;673;48.098;14.422;2023-04-01T15:11:03;9.20;99.90
1359;DHT22;673;48.098;14.422;2023-04-01T15:13:52;9.10;99.90
1359;DHT22;673;48.098;14.422;2023-04-01T15:16:27;9.40;99.90
1359;DHT22;673;48.098;14.422;2023-04-01T15:19:06;9.70;99.90
1359;DHT22;673;48.098;14.422;2023-04-01T15:21:50;9.90;99.90
1359;DHT22;673;48.098;14.422;2023-04-01T15:24:24;10.10;99.90
1359;DHT22;673;48.098;14.422;2023-04-01T15:29:58;10.30;99.90
1359;DHT22;673;48.098;14.422;2023-04-01T15:32:41;10.20;99.90
1359;DHT22;673;48.098;14.422;2023-04-01T15:35:21;10.10;99.90
1359;DHT22;673;48.098;14.422;2023-04-01T15:37:56;9.90;99.90
1359;DHT22;673;48.098;14.422;2023-04-01T15:40:27;10.00;99.90
1359;DHT22;673;48.098;14.422;2023-04-01T15:43:04;9.90;99.90
1359;DHT22;673;48.098;14.422;2023-04-01T15:45:45;9.90;99.90
1359;DHT22;673;48.098;14.422;2023-04-01T15:48:27;9.90;99.90
1359;DHT22;673;48.098;14.422;2023-04-01T15:51:06;10.00;99.90
1359;DHT22;673;48.098;14.422;2023-04-01T15:53:49;10.10;99.90
1359;DHT22;673;48.098;14.422;2023-04-01T15:56:28;10.30;99.90
1359;DHT22;673;48.098;14.422;2023-04-01T15:59:09;10.30;99.90
1359;DHT22;673;48.098;14.422;2023-04-01T16:01:46;10.30;99.90
1359;DHT22;673;48.098;14.422;2023-04-01T16:04:28;10.30;99.90
1359;DHT22;673;48.098;14.422;2023-04-01T16:07:08;10.20;99.90
1359;DHT22;673;48.098;14.422;2023-04-01T16:10:04;10.20;99.90
1359;DHT22;673;48.098;14.422;2023-04-01T16:12:44;10.30;99.90
1359;DHT22;673;48.098;14.422;2023-04-01T16:15:24;10.30;99.90
1359;DHT22;673;48.098;14.422;2023-04-01T16:20:53;10.20;99.90
1359;DHT22;673;48.098;14.422;2023-04-01T16:23:26;10.20;99.90
1359;DHT22;673;48.098;14.422;2023-04-01T16:26:03;10.20;99.90
1359;DHT22;673;48.098;14.422;2023-04-01T16:28:36;10.10;99.90
1359;DHT22;673;48.098;14.422;2023-04-01T16:31:10;10.10;99.90
1359;DHT22;673;48.098;14.422;2023-04-01T16:33:46;10.00;99.90
1359;DHT22;673;48.098;14.422;2023-04-01T16:36:23;10.00;99.90
1359;DHT22;673;48.098;14.422;2023-04-01T16:38:57;9.90;99.90
1359;DHT22;673;48.098;14.422;2023-04-01T16:41:31;9.90;99.90
1359;DHT22;673;48.098;14.422;2023-04-01T16:44:10;9.80;99.90
1359;DHT22;673;48.098;14.422;2023-04-01T16:46:43;9.70;99.90
1359;DHT22;673;48.098;14.422;2023-04-01T16:49:30;9.70;99.90
1359;DHT22;673;48.098;14.422;2023-04-01T16:52:13;9.60;99.90
1359;DHT22;673;48.098;14.422;2023-04-01T16:54:45;9.60;99.90
1359;DHT22;673;48.098;14.422;2023-04-01T16:57:20;9.60;99.90
1359;DHT22;673;48.098;14.422;2023-04-01T16:59:55;9.50;99.90
1359;DHT22;673;48.098;14.422;2023-04-01T17:02:30;9.40;99.90
1359;DHT22;673;48.098;14.422;2023-04-01T17:05:05;9.40;99.90
1359;DHT22;673;48.098;14.422;2023-04-01T17:07:44;9.40;99.90
1359;DHT22;673;48.098;14.422;2023-04-01T17:10:37;9.40;99.90
1359;DHT22;673;48.098;14.422;2023-04-01T17:16:30;9.20;99.90
1359;DHT22;673;48.098;14.422;2023-04-01T17:19:10;9.20;99.90
1359;DHT22;673;48.098;14.422;2023-04-01T17:21:55;9.20;99.90
1359;DHT22;673;48.098;14.422;2023-04-01T17:24:47;9.10;99.90
1359;DHT22;673;48.098;14.422;2023-04-01T17:27:29;9.10;99.90
1359;DHT22;673;48.098;14.422;2023-04-01T17:30:17;8.90;99.90
1359;DHT22;673;48.098;14.422;2023-04-01T17:33:00;8.90;99.90
1359;DHT22;673;48.098;14.422;2023-04-01T17:35:32;8.80;99.90
1359;DHT22;673;48.098;14.422;2023-04-01T17:38:13;8.80;99.90
1359;DHT22;673;48.098;14.422;2023-04-01T17:40:53;8.80;99.90
1359;DHT22;673;48.098;14.422;2023-04-01T17:43:33;8.70;99.90
1359;DHT22;673;48.098;14.422;2023-04-01T17:46:11;8.70;99.90
1359;DHT22;673;48.098;14.422;2023-04-01T17:48:42;8.70;99.90
1359;DHT22;673;48.098;14.422;2023-04-01T17:51:25;8.80;99.90
1359;DHT22;673;48.098;14.422;2023-04-01T17:53:59;8.80;99.90
1359;DHT22;673;48.098;14.422;2023-04-01T17:56:45;8.80;99.90
1359;DHT22;673;48.098;14.422;2023-04-01T17:59:24;8.80;99.90
1359;DHT22;673;48.098;14.422;2023-04-01T18:02:02;8.80;99.90
1359;DHT22;673;48.098;14.422;2023-04-01T18:04:43;8.70;99.90
1359;DHT22;673;48.098;14.422;2023-04-01T18:07:49;8.70;99.90
1359;DHT22;673;48.098;14.422;2023-04-01T18:10:25;8.60;99.90
1359;DHT22;673;48.098;14.422;2023-04-01T18:13:13;8.50;99.90
1359;DHT22;673;48.098;14.422;2023-04-01T18:15:47;8.40;99.90
1359;DHT22;673;48.098;14.422;2023-04-01T18:18:42;8.30;99.90
1359;DHT22;673;48.098;14.422;2023-04-01T18:21:17;8.20;99.90
1359;DHT22;673;48.098;14.422;2023-04-01T18:23:51;8.20;99.90
1359;DHT22;673;48.098;14.422;2023-04-01T18:26:22;8.10;99.90
1359;DHT22;673;48.098;14.422;2023-04-01T18:28:54;8.10;99.90